Time;durP1;ratioP1;P1;durP2;ratioP2;P2;SDS_P1;SDS_P2;PMS_P1;PMS_P2;Temp;Humidity;BMP_temperature;BMP_pressure;BME280_temperature;BME280_humidity;BME280_pressure;Samples;Min_cycle;Max_cycle;Signal;HPM_P1;HPM_P2
2022/11/18 00:01:30;;;;;;;13.38;11.57;;;;;;;;;;5085062;28;20481;-66
2022/11/18 00:03:56;;;;;;;13.75;10.30;;;;;;;;;;5085820;28;20028;-66
2022/11/18 00:06:24;;;;;;;12.82;11.27;;;;;;;;;;5077701;28;20061;-66
2022/11/18 00:08:51;;;;;;;13.57;10.77;;;;;;;;;;5079480;28;20513;-66
2022/11/18 00:14:18;;;;;;;16.60;11.23;;;;;;;;;;5078246;28;20044;-66
2022/11/18 00:16:49;;;;;;;14.95;12.15;;;;;;;;;;5078515;28;20052;-66
2022/11/18 00:19:15;;;;;;;14.75;11.73;;;;;;;;;;5081289;28;20032;-66
2022/11/18 00:21:42;;;;;;;15.43;12.18;;;;;;;;;;5083177;28;20089;-66
2022/11/18 00:24:08;;;;;;;16.50;12.45;;;;;;;;;;5083953;28;20043;-66
2022/11/18 00:26:35;;;;;;;14.02;12.18;;;;;;;;;;5081686;28;20044;-66
2022/11/18 00:29:01;;;;;;;13.95;12.45;;;;;;;;;;5083699;28;20043;-66
2022/11/18 00:31:27;;;;;;;18.00;12.75;;;;;;;;;;5084762;28;20125;-66
2022/11/18 00:33:53;;;;;;;13.98;12.45;;;;;;;;;;5086595;28;20040;-66
2022/11/18 00:36:20;;;;;;;15.23;12.75;;;;;;;;;;5087893;28;20047;-66
2022/11/18 00:38:46;;;;;;;20.83;13.55;;;;;;;;;;5082093;28;20093;-66
2022/11/18 00:41:13;;;;;;;17.33;12.88;;;;;;;;;;5082458;28;20086;-66
2022/11/18 00:43:40;;;;;;;15.48;12.88;;;;;;;;;;5073392;28;20033;-66
2022/11/18 00:46:07;;;;;;;18.17;13.85;;;;;;;;;;5078991;28;20040;-66
2022/11/18 00:48:33;;;;;;;16.67;13.52;;;;;;;;;;5078033;28;20037;-66
2022/11/18 00:51:06;;;;;;;19.60;13.02;;;;;;;;;;5079965;28;20469;-66
2022/11/18 00:53:32;;;;;;;15.48;13.55;;;;;;;;;;5072715;28;20351;-66
2022/11/18 00:55:58;;;;;;;19.95;14.32;;;;;;;;;;5078536;28;20029;-66
2022/11/18 00:58:24;;;;;;;19.50;15.68;;;;;;;;;;5089421;28;20052;-66
2022/11/18 01:00:52;;;;;;;17.67;13.75;;;;;;;;;;5082540;28;20276;-66
2022/11/18 01:03:19;;;;;;;19.13;14.60;;;;;;;;;;5074797;28;20464;-66
2022/11/18 01:05:45;;;;;;;23.17;15.10;;;;;;;;;;5098924;28;20074;-66
2022/11/18 01:08:12;;;;;;;20.90;16.58;;;;;;;;;;5120078;28;20040;-66
2022/11/18 01:10:38;;;;;;;19.52;15.45;;;;;;;;;;5125807;28;20032;-66
2022/11/18 01:13:20;;;;;;;23.10;16.55;;;;;;;;;;5116748;28;20044;-65
2022/11/18 01:15:54;;;;;;;19.92;14.90;;;;;;;;;;5108586;28;20020;-66
2022/11/18 01:18:24;;;;;;;21.00;15.93;;;;;;;;;;5118818;28;20067;-67
2022/11/18 01:20:50;;;;;;;19.58;15.00;;;;;;;;;;5109596;28;20082;-65
2022/11/18 01:23:17;;;;;;;20.67;15.75;;;;;;;;;;5124797;28;20047;-65
2022/11/18 01:25:44;;;;;;;23.35;16.13;;;;;;;;;;5124525;28;20064;-66
2022/11/18 01:28:11;;;;;;;23.95;17.42;;;;;;;;;;5119065;28;20047;-66
2022/11/18 01:30:38;;;;;;;21.25;16.98;;;;;;;;;;5122251;28;20492;-66
2022/11/18 01:33:04;;;;;;;22.17;16.17;;;;;;;;;;5119062;28;20046;-66
2022/11/18 01:35:35;;;;;;;22.65;16.85;;;;;;;;;;5123495;28;20039;-66
2022/11/18 01:38:01;;;;;;;20.10;16.02;;;;;;;;;;5120953;28;20058;-66
2022/11/18 01:40:28;;;;;;;22.63;16.60;;;;;;;;;;5128086;28;20425;-66
2022/11/18 01:42:54;;;;;;;26.15;17.95;;;;;;;;;;5117582;28;20035;-66
2022/11/18 01:45:26;;;;;;;21.63;16.70;;;;;;;;;;5119258;28;20036;-67
2022/11/18 01:47:58;;;;;;;23.13;16.45;;;;;;;;;;5121895;28;20036;-66
2022/11/18 01:50:25;;;;;;;29.45;19.88;;;;;;;;;;5127569;28;20043;-66
2022/11/18 01:52:53;;;;;;;24.85;17.13;;;;;;;;;;5087254;28;20070;-66
2022/11/18 01:55:22;;;;;;;22.88;16.73;;;;;;;;;;5124098;27;20083;-66
2022/11/18 01:57:49;;;;;;;24.98;18.05;;;;;;;;;;5104742;27;20036;-66
2022/11/18 02:00:15;;;;;;;24.60;17.48;;;;;;;;;;5126073;27;20046;-66
2022/11/18 02:02:42;;;;;;;24.48;16.73;;;;;;;;;;5108927;27;20043;-66
2022/11/18 02:05:09;;;;;;;26.77;16.42;;;;;;;;;;5126384;27;20049;-66
2022/11/18 02:07:38;;;;;;;26.65;17.73;;;;;;;;;;5109325;28;20143;-66
2022/11/18 02:10:06;;;;;;;33.85;16.90;;;;;;;;;;5122440;27;20400;-66
2022/11/18 02:12:32;;;;;;;26.98;18.08;;;;;;;;;;5129728;27;20039;-66
2022/11/18 02:14:59;;;;;;;24.67;17.58;;;;;;;;;;5121279;27;20035;-66
2022/11/18 02:17:45;;;;;;;25.58;17.35;;;;;;;;;;5125733;27;20412;-66
2022/11/18 02:20:17;;;;;;;28.23;17.95;;;;;;;;;;5109908;27;20043;-66
2022/11/18 02:23:01;;;;;;;27.67;17.92;;;;;;;;;;5128745;27;20037;-66
2022/11/18 02:25:48;;;;;;;27.75;17.23;;;;;;;;;;5129437;27;20681;-66
2022/11/18 02:28:33;;;;;;;24.92;17.25;;;;;;;;;;5126597;27;20523;-66
2022/11/18 02:31:06;;;;;;;23.55;15.63;;;;;;;;;;5108230;27;20042;-66
2022/11/18 02:33:38;;;;;;;34.40;18.80;;;;;;;;;;5122366;27;20488;-66
2022/11/18 02:36:11;;;;;;;23.52;16.55;;;;;;;;;;5128621;27;20035;-66
2022/11/18 02:38:41;;;;;;;27.65;19.55;;;;;;;;;;5107198;27;20032;-66
2022/11/18 02:41:10;;;;;;;31.08;20.35;;;;;;;;;;5125727;27;20039;-66
2022/11/18 02:43:53;;;;;;;32.33;19.80;;;;;;;;;;5118329;27;20130;-66
2022/11/18 02:46:27;;;;;;;26.90;18.58;;;;;;;;;;5122288;27;20388;-66
2022/11/18 02:48:53;;;;;;;35.80;19.92;;;;;;;;;;5128203;27;20070;-66
2022/11/18 02:51:23;;;;;;;29.98;19.02;;;;;;;;;;5128797;27;20035;-66
2022/11/18 02:53:50;;;;;;;27.02;18.48;;;;;;;;;;5130790;27;20036;-66
2022/11/18 02:56:16;;;;;;;30.92;19.42;;;;;;;;;;5123482;27;20504;-66
2022/11/18 02:58:42;;;;;;;29.75;19.65;;;;;;;;;;5109274;27;20107;-66
2022/11/18 03:01:14;;;;;;;30.67;20.20;;;;;;;;;;5127538;27;20496;-66
2022/11/18 03:03:41;;;;;;;30.73;20.57;;;;;;;;;;5124657;27;20034;-66
2022/11/18 03:06:11;;;;;;;30.83;19.98;;;;;;;;;;5117139;27;20293;-66
2022/11/18 03:08:43;;;;;;;37.13;20.75;;;;;;;;;;5106950;27;20035;-66
2022/11/18 03:11:09;;;;;;;;;;;;;;;;;;5121448;27;20187;-66
2022/11/18 03:13:52;;;;;;;32.35;19.92;;;;;;;;;;5110032;27;19919;-66
2022/11/18 03:16:23;;;;;;;36.47;18.65;;;;;;;;;;5126876;27;20170;-66
2022/11/18 03:18:54;;;;;;;36.60;20.05;;;;;;;;;;5118945;27;20412;-66
2022/11/18 03:21:20;;;;;;;30.95;19.40;;;;;;;;;;5123924;27;20244;-66
2022/11/18 03:24:08;;;;;;;28.55;18.67;;;;;;;;;;5104560;27;20058;-66
2022/11/18 03:26:39;;;;;;;40.63;20.90;;;;;;;;;;5127535;27;20043;-66
2022/11/18 03:29:12;;;;;;;28.23;19.77;;;;;;;;;;5127155;27;20034;-66
2022/11/18 03:31:44;;;;;;;25.98;19.98;;;;;;;;;;5102923;27;20039;-66
2022/11/18 03:34:14;;;;;;;32.40;21.83;;;;;;;;;;5118255;27;20039;-65
2022/11/18 03:36:44;;;;;;;28.70;19.83;;;;;;;;;;5129585;27;20592;-66
2022/11/18 03:39:12;;;;;;;28.75;19.27;;;;;;;;;;5117486;27;20028;-66
2022/11/18 03:41:42;;;;;;;28.92;18.35;;;;;;;;;;5108266;27;20123;-66
2022/11/18 03:44:13;;;;;;;29.73;19.70;;;;;;;;;;5123662;27;20031;-65
2022/11/18 03:46:45;;;;;;;25.83;17.25;;;;;;;;;;5126761;27;20039;-66
2022/11/18 03:49:14;;;;;;;33.83;19.55;;;;;;;;;;5106887;27;20043;-66
2022/11/18 03:51:42;;;;;;;28.15;18.98;;;;;;;;;;5123474;27;20050;-66
2022/11/18 03:54:14;;;;;;;31.42;19.90;;;;;;;;;;5119783;27;20086;-65
2022/11/18 03:56:42;;;;;;;29.52;18.65;;;;;;;;;;5110715;27;20035;-66
2022/11/18 03:59:14;;;;;;;31.92;20.10;;;;;;;;;;5119936;27;20036;-66
2022/11/18 04:01:46;;;;;;;29.67;18.65;;;;;;;;;;5105332;27;20038;-66
2022/11/18 04:04:13;;;;;;;30.17;19.35;;;;;;;;;;5123748;27;20050;-66
2022/11/18 04:06:42;;;;;;;30.80;18.98;;;;;;;;;;5126760;27;20051;-66
2022/11/18 04:09:13;;;;;;;31.23;18.48;;;;;;;;;;5125931;27;20039;-66
2022/11/18 04:12:02;;;;;;;33.17;19.02;;;;;;;;;;5127278;27;20110;-66
2022/11/18 04:14:30;;;;;;;29.75;20.00;;;;;;;;;;5101839;27;20553;-66
2022/11/18 04:16:56;;;;;;;29.50;20.15;;;;;;;;;;5121997;27;20086;-66
2022/11/18 04:19:22;;;;;;;27.55;19.80;;;;;;;;;;5122102;27;20031;-66
2022/11/18 04:21:49;;;;;;;27.13;19.77;;;;;;;;;;5126826;27;20533;-66
2022/11/18 04:24:15;;;;;;;27.25;20.30;;;;;;;;;;5119609;27;20038;-66
2022/11/18 04:26:42;;;;;;;27.90;19.80;;;;;;;;;;5124394;27;20042;-68
2022/11/18 04:29:08;;;;;;;28.67;19.75;;;;;;;;;;5106902;27;20426;-66
2022/11/18 04:31:34;;;;;;;29.55;19.35;;;;;;;;;;5104177;27;20520;-66
2022/11/18 04:34:00;;;;;;;36.97;19.65;;;;;;;;;;5106415;27;20291;-66
2022/11/18 04:36:26;;;;;;;29.05;19.35;;;;;;;;;;5123045;27;20043;-66
2022/11/18 04:38:52;;;;;;;30.05;18.65;;;;;;;;;;5106670;27;20070;-66
2022/11/18 04:41:18;;;;;;;30.10;19.77;;;;;;;;;;5121819;27;20035;-66
2022/11/18 04:43:45;;;;;;;28.88;18.17;;;;;;;;;;5126719;27;20075;-66
2022/11/18 04:46:11;;;;;;;29.35;18.52;;;;;;;;;;5120637;27;20099;-66
2022/11/18 04:48:37;;;;;;;28.92;18.80;;;;;;;;;;5105934;28;20043;-65
2022/11/18 04:51:03;;;;;;;35.47;22.85;;;;;;;;;;5123000;28;20028;-66
2022/11/18 04:53:30;;;;;;;31.40;18.70;;;;;;;;;;5125783;28;20476;-66
2022/11/18 04:55:56;;;;;;;26.65;19.30;;;;;;;;;;5124048;28;20031;-67
2022/11/18 04:58:22;;;;;;;31.80;18.42;;;;;;;;;;5089761;28;20066;-67
2022/11/18 05:00:50;;;;;;;28.25;18.38;;;;;;;;;;5107555;28;20040;-67
2022/11/18 05:03:16;;;;;;;29.67;19.48;;;;;;;;;;5117793;28;20286;-66
2022/11/18 05:05:42;;;;;;;28.20;18.63;;;;;;;;;;5101549;28;20059;-66
2022/11/18 05:08:08;;;;;;;26.42;20.10;;;;;;;;;;5090620;28;20090;-66
2022/11/18 05:10:34;;;;;;;28.90;19.23;;;;;;;;;;5091700;28;20036;-66
2022/11/18 05:13:01;;;;;;;26.65;19.58;;;;;;;;;;5092030;28;20553;-67
2022/11/18 05:15:27;;;;;;;29.42;19.13;;;;;;;;;;5089534;28;20558;-66
2022/11/18 05:17:53;;;;;;;27.05;19.27;;;;;;;;;;5086870;28;20029;-66
2022/11/18 05:20:19;;;;;;;29.40;19.77;;;;;;;;;;5090368;28;20040;-66
2022/11/18 05:22:45;;;;;;;29.98;19.25;;;;;;;;;;5096773;28;20141;-66
2022/11/18 05:25:11;;;;;;;29.33;19.85;;;;;;;;;;5085976;28;20092;-66
2022/11/18 05:27:37;;;;;;;27.77;17.77;;;;;;;;;;5087604;28;20121;-66
2022/11/18 05:30:04;;;;;;;28.90;18.05;;;;;;;;;;5090533;28;20040;-67
2022/11/18 05:32:30;;;;;;;26.45;18.05;;;;;;;;;;5083781;28;20104;-66
2022/11/18 05:34:57;;;;;;;27.25;17.25;;;;;;;;;;5084179;28;20489;-66
2022/11/18 05:37:23;;;;;;;25.85;16.45;;;;;;;;;;5083604;28;20043;-66
2022/11/18 05:39:49;;;;;;;24.75;16.98;;;;;;;;;;5082988;28;20024;-67
2022/11/18 05:45:00;;;;;;;21.88;16.40;;;;;;;;;;5093297;28;20402;-66
2022/11/18 05:47:26;;;;;;;28.77;17.85;;;;;;;;;;5092737;28;20046;-66
2022/11/18 05:49:52;;;;;;;27.95;18.13;;;;;;;;;;5085805;28;20072;-66
2022/11/18 05:52:18;;;;;;;20.75;14.52;;;;;;;;;;5078117;28;20042;-66
2022/11/18 05:54:48;;;;;;;25.75;17.60;;;;;;;;;;5091299;28;20578;-66
2022/11/18 05:57:14;;;;;;;22.45;15.35;;;;;;;;;;5090088;28;20038;-66
2022/11/18 05:59:40;;;;;;;26.02;17.42;;;;;;;;;;5093306;28;20520;-66
2022/11/18 06:02:12;;;;;;;22.23;15.63;;;;;;;;;;5092689;28;20044;-66
2022/11/18 06:04:42;;;;;;;23.05;16.33;;;;;;;;;;5090733;28;20089;-66
2022/11/18 06:07:13;;;;;;;19.95;15.32;;;;;;;;;;5126149;27;20059;-66
2022/11/18 06:09:41;;;;;;;23.98;16.45;;;;;;;;;;5111037;27;20047;-67
2022/11/18 06:12:08;;;;;;;25.92;15.52;;;;;;;;;;5108298;28;20051;-66
2022/11/18 06:14:42;;;;;;;26.20;17.15;;;;;;;;;;5106383;27;20092;-67
2022/11/18 06:17:11;;;;;;;23.38;16.38;;;;;;;;;;5122660;27;20046;-66
2022/11/18 06:19:37;;;;;;;24.08;17.40;;;;;;;;;;5128803;27;20046;-67
2022/11/18 06:22:04;;;;;;;23.50;14.35;;;;;;;;;;5125427;27;20441;-67
2022/11/18 06:24:31;;;;;;;22.75;15.00;;;;;;;;;;5118084;27;20085;-66
2022/11/18 06:26:58;;;;;;;22.73;15.63;;;;;;;;;;5111501;27;20055;-66
2022/11/18 06:29:24;;;;;;;22.48;15.57;;;;;;;;;;5122607;27;20031;-66
2022/11/18 06:31:50;;;;;;;21.98;14.55;;;;;;;;;;5110193;27;20400;-66
2022/11/18 06:34:16;;;;;;;20.23;15.18;;;;;;;;;;5126471;27;20035;-67
2022/11/18 06:36:42;;;;;;;23.70;16.55;;;;;;;;;;5126761;27;20400;-66
2022/11/18 06:39:08;;;;;;;21.42;15.30;;;;;;;;;;5124334;27;20050;-66
2022/11/18 06:41:34;;;;;;;21.50;16.02;;;;;;;;;;5128531;27;20035;-66
2022/11/18 06:44:01;;;;;;;23.52;15.98;;;;;;;;;;5112686;27;20065;-66
2022/11/18 06:49:11;;;;;;;26.98;15.57;;;;;;;;;;5126474;27;20045;-66
2022/11/18 06:51:39;;;;;;;24.75;15.50;;;;;;;;;;5111516;27;20046;-66
2022/11/18 06:54:05;;;;;;;23.92;15.48;;;;;;;;;;5126840;27;20039;-66
2022/11/18 06:56:31;;;;;;;21.17;14.88;;;;;;;;;;5123999;27;20507;-67
2022/11/18 06:58:58;;;;;;;26.88;16.83;;;;;;;;;;5121858;27;20113;-66
2022/11/18 07:01:25;;;;;;;22.80;15.05;;;;;;;;;;5124483;27;20031;-66
2022/11/18 07:03:52;;;;;;;20.88;15.00;;;;;;;;;;5126850;27;20042;-67
2022/11/18 07:06:20;;;;;;;20.77;14.35;;;;;;;;;;5128002;27;20055;-66
2022/11/18 07:08:46;;;;;;;23.70;16.20;;;;;;;;;;5106483;28;20035;-66
2022/11/18 07:11:13;;;;;;;24.67;15.77;;;;;;;;;;5113249;27;20096;-67
2022/11/18 07:13:40;;;;;;;25.13;15.93;;;;;;;;;;5124324;27;20031;-66
2022/11/18 07:16:10;;;;;;;22.35;14.73;;;;;;;;;;5125969;27;20147;-66
2022/11/18 07:18:37;;;;;;;23.95;15.32;;;;;;;;;;5122319;27;20039;-67
2022/11/18 07:21:04;;;;;;;21.92;15.55;;;;;;;;;;5127561;27;20493;-67
2022/11/18 07:23:31;;;;;;;25.17;16.65;;;;;;;;;;5111292;27;20426;-66
2022/11/18 07:25:57;;;;;;;24.08;15.85;;;;;;;;;;5124976;27;20036;-67
2022/11/18 07:28:24;;;;;;;27.02;17.55;;;;;;;;;;5106720;27;20040;-66
2022/11/18 07:30:50;;;;;;;25.48;17.15;;;;;;;;;;5107832;28;20057;-67
2022/11/18 07:33:16;;;;;;;22.52;15.70;;;;;;;;;;5124087;27;20082;-66
2022/11/18 07:35:43;;;;;;;24.30;16.48;;;;;;;;;;5121833;27;20071;-66
2022/11/18 07:38:09;;;;;;;27.30;17.35;;;;;;;;;;5112007;27;20397;-67
2022/11/18 07:40:35;;;;;;;28.05;17.13;;;;;;;;;;5123781;27;20035;-67
2022/11/18 07:43:01;;;;;;;23.90;15.77;;;;;;;;;;5127941;27;20043;-67
2022/11/18 07:45:27;;;;;;;21.27;14.70;;;;;;;;;;5125706;27;20035;-66
2022/11/18 07:47:54;;;;;;;29.88;18.25;;;;;;;;;;5116314;27;20039;-67
2022/11/18 07:50:20;;;;;;;23.88;15.95;;;;;;;;;;5124450;27;20158;-66
2022/11/18 07:52:46;;;;;;;24.48;17.13;;;;;;;;;;5122119;27;20516;-67
2022/11/18 07:55:12;;;;;;;25.73;17.13;;;;;;;;;;5107366;27;20050;-67
2022/11/18 07:57:38;;;;;;;32.28;17.10;;;;;;;;;;5127127;27;20445;-67
2022/11/18 08:00:04;;;;;;;23.90;15.73;;;;;;;;;;5124396;27;20613;-66
2022/11/18 08:02:31;;;;;;;25.50;15.38;;;;;;;;;;5122009;27;20071;-66
2022/11/18 08:04:57;;;;;;;24.42;15.30;;;;;;;;;;5123893;27;20071;-66
2022/11/18 08:07:23;;;;;;;26.77;15.98;;;;;;;;;;5118527;27;20134;-66
2022/11/18 08:09:49;;;;;;;26.02;16.08;;;;;;;;;;5120554;27;20051;-66
2022/11/18 08:12:15;;;;;;;26.85;15.98;;;;;;;;;;5121425;27;20039;-66
2022/11/18 08:14:41;;;;;;;28.63;17.50;;;;;;;;;;5127137;27;20031;-67
2022/11/18 08:17:07;;;;;;;22.60;16.52;;;;;;;;;;5124212;27;20125;-67
2022/11/18 08:19:34;;;;;;;21.75;14.32;;;;;;;;;;5124503;27;20031;-67
2022/11/18 08:22:00;;;;;;;25.83;16.23;;;;;;;;;;5125567;27;20039;-67
2022/11/18 08:24:26;;;;;;;31.42;16.63;;;;;;;;;;5124042;27;20032;-66
2022/11/18 08:26:52;;;;;;;28.30;17.33;;;;;;;;;;5126107;27;20043;-66
2022/11/18 08:29:18;;;;;;;30.65;17.52;;;;;;;;;;5121096;27;20053;-66
2022/11/18 08:31:44;;;;;;;26.27;17.13;;;;;;;;;;5122105;27;20038;-67
2022/11/18 08:34:11;;;;;;;29.23;17.90;;;;;;;;;;5106367;28;20051;-66
2022/11/18 08:36:38;;;;;;;29.38;16.75;;;;;;;;;;5120317;27;20602;-66
2022/11/18 08:39:05;;;;;;;24.73;15.23;;;;;;;;;;5125685;27;20046;-67
2022/11/18 08:41:31;;;;;;;34.50;17.38;;;;;;;;;;5122377;27;20023;-66
2022/11/18 08:43:57;;;;;;;23.58;15.27;;;;;;;;;;5125347;27;20031;-66
2022/11/18 08:46:23;;;;;;;31.90;17.25;;;;;;;;;;5123866;27;20027;-66
2022/11/18 08:48:49;;;;;;;27.23;17.02;;;;;;;;;;5120239;27;20080;-66
2022/11/18 08:51:16;;;;;;;32.80;17.15;;;;;;;;;;5110064;28;20031;-66
2022/11/18 08:53:42;;;;;;;27.75;16.20;;;;;;;;;;5113798;28;20115;-66
2022/11/18 08:56:19;;;;;;;25.00;15.95;;;;;;;;;;5100524;28;20095;-67
2022/11/18 08:58:45;;;;;;;40.28;17.05;;;;;;;;;;5115444;28;20036;-66
2022/11/18 09:01:11;;;;;;;26.77;15.98;;;;;;;;;;5116564;28;20038;-67
2022/11/18 09:03:38;;;;;;;25.98;15.05;;;;;;;;;;5099244;28;20032;-66
2022/11/18 09:06:08;;;;;;;24.85;15.00;;;;;;;;;;5123636;27;20593;-66
2022/11/18 09:08:34;;;;;;;28.85;14.90;;;;;;;;;;5123877;27;20053;-66
2022/11/18 09:11:11;;;;;;;25.25;14.48;;;;;;;;;;5115041;27;20427;-66
2022/11/18 09:13:37;;;;;;;25.02;16.60;;;;;;;;;;5115074;27;20074;-66
2022/11/18 09:16:04;;;;;;;24.65;13.65;;;;;;;;;;5120969;27;20035;-66
2022/11/18 09:18:30;;;;;;;26.30;15.18;;;;;;;;;;5123635;27;20057;-66
2022/11/18 09:20:57;;;;;;;27.48;15.32;;;;;;;;;;5106437;28;20556;-66
2022/11/18 09:23:23;;;;;;;21.73;13.55;;;;;;;;;;5124487;27;20031;-66
2022/11/18 09:25:56;;;;;;;20.27;13.25;;;;;;;;;;5121964;27;20039;-66
2022/11/18 09:28:22;;;;;;;23.38;14.48;;;;;;;;;;5123113;27;20039;-66
2022/11/18 09:30:48;;;;;;;24.27;14.63;;;;;;;;;;5109282;27;20035;-66
2022/11/18 09:33:15;;;;;;;18.13;12.63;;;;;;;;;;5123947;27;20405;-66
2022/11/18 09:35:42;;;;;;;21.52;12.38;;;;;;;;;;5123726;27;20039;-66
2022/11/18 09:38:08;;;;;;;17.05;11.05;;;;;;;;;;5120091;27;20131;-66
2022/11/18 09:40:44;;;;;;;19.13;12.38;;;;;;;;;;5123475;27;20040;-66
2022/11/18 09:43:16;;;;;;;19.95;11.82;;;;;;;;;;5125758;27;20097;-66
2022/11/18 09:45:42;;;;;;;;;;;;;;;;;;5122956;27;20493;-66
2022/11/18 09:48:19;;;;;;;17.23;10.05;;;;;;;;;;5113103;27;19919;-66
2022/11/18 09:50:45;;;;;;;17.58;10.55;;;;;;;;;;5120466;27;20389;-66
2022/11/18 09:53:22;;;;;;;16.92;10.75;;;;;;;;;;5126116;27;20457;-66
2022/11/18 09:55:49;;;;;;;18.35;10.73;;;;;;;;;;5127409;27;20039;-66
2022/11/18 09:58:17;;;;;;;18.35;10.15;;;;;;;;;;5120483;27;20480;-66
2022/11/18 10:00:45;;;;;;;17.77;10.10;;;;;;;;;;5126035;27;20043;-67
2022/11/18 10:03:15;;;;;;;20.48;10.27;;;;;;;;;;5120846;27;20048;-66
2022/11/18 10:05:49;;;;;;;17.55;10.25;;;;;;;;;;5122124;27;20041;-66
2022/11/18 10:08:21;;;;;;;17.55;10.32;;;;;;;;;;5120182;27;20493;-66
2022/11/18 10:10:50;;;;;;;21.38;11.25;;;;;;;;;;5116196;27;20031;-66
2022/11/18 10:13:23;;;;;;;16.95;11.02;;;;;;;;;;5122964;27;20126;-66
2022/11/18 10:15:54;;;;;;;19.48;10.85;;;;;;;;;;5124086;27;20487;-66
2022/11/18 10:18:30;;;;;;;18.17;10.93;;;;;;;;;;5123898;27;20551;-66
2022/11/18 10:21:03;;;;;;;13.57;9.55;;;;;;;;;;5122082;27;20074;-66
2022/11/18 10:23:29;;;;;;;;;;;;;;;;;;5107609;27;20054;-66
2022/11/18 10:25:55;;;;;;;14.45;9.38;;;;;;;;;;5118117;27;19922;-66
2022/11/18 10:28:28;;;;;;;15.88;9.57;;;;;;;;;;5121718;27;20046;-65
2022/11/18 10:30:54;;;;;;;14.10;9.32;;;;;;;;;;5124934;27;20079;-66
2022/11/18 10:33:23;;;;;;;15.13;8.63;;;;;;;;;;5124499;27;20058;-66
2022/11/18 10:35:49;;;;;;;13.57;9.57;;;;;;;;;;5103462;27;20480;-66
2022/11/18 10:38:19;;;;;;;17.23;9.10;;;;;;;;;;5103658;27;20408;-66
2022/11/18 10:40:52;;;;;;;16.15;9.40;;;;;;;;;;5124980;27;20122;-66
2022/11/18 10:43:36;;;;;;;17.50;9.27;;;;;;;;;;5118706;27;20412;-66
2022/11/18 10:46:16;;;;;;;15.82;9.13;;;;;;;;;;5120625;27;20503;-66
2022/11/18 10:48:42;;;;;;;18.40;10.23;;;;;;;;;;5123659;27;20039;-66
2022/11/18 10:51:22;;;;;;;15.13;10.43;;;;;;;;;;5110212;27;20197;-66
2022/11/18 10:53:49;;;;;;;13.93;8.43;;;;;;;;;;5120754;27;20123;-66
2022/11/18 10:56:15;;;;;;;15.52;9.10;;;;;;;;;;5116237;27;20377;-66
2022/11/18 10:58:46;;;;;;;13.60;9.35;;;;;;;;;;5121202;27;20039;-66
2022/11/18 11:01:25;;;;;;;15.85;9.77;;;;;;;;;;5120497;27;20038;-66
2022/11/18 11:04:03;;;;;;;15.95;9.32;;;;;;;;;;5119135;27;20115;-66
2022/11/18 11:06:34;;;;;;;14.98;8.90;;;;;;;;;;5104859;28;20598;-66
2022/11/18 11:09:14;;;;;;;12.15;7.85;;;;;;;;;;5116107;27;21736;-66
2022/11/18 11:11:42;;;;;;;14.02;8.43;;;;;;;;;;5124361;27;20027;-66
2022/11/18 11:14:25;;;;;;;12.45;8.65;;;;;;;;;;5107112;28;20035;-68
2022/11/18 11:16:59;;;;;;;16.53;9.77;;;;;;;;;;5120743;27;20049;-67
2022/11/18 11:19:45;;;;;;;13.60;8.98;;;;;;;;;;5116609;27;20438;-66
2022/11/18 11:22:11;;;;;;;13.50;9.00;;;;;;;;;;5122329;27;20053;-66
2022/11/18 11:24:37;;;;;;;16.98;9.43;;;;;;;;;;5119596;27;20412;-66
2022/11/18 11:27:04;;;;;;;16.13;10.63;;;;;;;;;;5120417;27;20124;-66
2022/11/18 11:29:30;;;;;;;14.18;9.25;;;;;;;;;;5122835;27;20078;-66
2022/11/18 11:32:06;;;;;;;13.90;8.90;;;;;;;;;;5119503;27;20088;-66
2022/11/18 11:34:39;;;;;;;15.85;10.50;;;;;;;;;;5102577;27;20079;-66
2022/11/18 11:37:24;;;;;;;12.82;8.48;;;;;;;;;;5115063;27;20039;-66
2022/11/18 11:40:10;;;;;;;14.70;8.50;;;;;;;;;;5116809;27;20110;-66
2022/11/18 11:42:41;;;;;;;16.42;10.73;;;;;;;;;;5122035;27;20175;-66
2022/11/18 11:45:19;;;;;;;14.18;8.45;;;;;;;;;;5119214;27;20099;-66
2022/11/18 11:47:55;;;;;;;13.30;9.45;;;;;;;;;;5122154;27;20343;-66
2022/11/18 11:50:52;;;;;;;16.05;9.93;;;;;;;;;;5093821;28;20047;-66
2022/11/18 11:53:27;;;;;;;12.43;8.98;;;;;;;;;;5117717;27;20504;-66
2022/11/18 11:56:09;;;;;;;13.23;8.05;;;;;;;;;;5122637;27;20046;-66
2022/11/18 11:58:50;;;;;;;11.80;7.70;;;;;;;;;;5114313;27;20102;-66
2022/11/18 12:01:36;;;;;;;12.00;7.05;;;;;;;;;;5112741;27;20489;-66
2022/11/18 12:04:15;;;;;;;12.30;7.82;;;;;;;;;;5075968;27;20051;-66
2022/11/18 12:06:43;;;;;;;17.27;8.18;;;;;;;;;;5119354;27;20448;-66
2022/11/18 12:09:18;;;;;;;9.80;7.35;;;;;;;;;;5117683;27;20050;-68
2022/11/18 12:11:47;;;;;;;13.13;7.60;;;;;;;;;;5118131;27;20035;-66
2022/11/18 12:14:25;;;;;;;13.73;7.85;;;;;;;;;;5121070;27;20031;-66
2022/11/18 12:16:54;;;;;;;12.98;8.13;;;;;;;;;;5112195;27;20532;-67
2022/11/18 12:19:22;;;;;;;13.35;7.88;;;;;;;;;;5112909;27;20043;-66
2022/11/18 12:21:51;;;;;;;12.85;7.38;;;;;;;;;;5107436;27;20035;-66
2022/11/18 12:24:18;;;;;;;13.52;8.23;;;;;;;;;;5117375;27;20073;-66
2022/11/18 12:26:45;;;;;;;13.68;8.30;;;;;;;;;;5105636;27;20588;-66
2022/11/18 12:29:20;;;;;;;11.60;7.88;;;;;;;;;;5108935;27;20039;-66
2022/11/18 12:31:47;;;;;;;11.07;7.72;;;;;;;;;;5124492;27;20066;-66
2022/11/18 12:34:28;;;;;;;13.13;8.82;;;;;;;;;;5121171;27;20070;-66
2022/11/18 12:36:54;;;;;;;20.20;10.02;;;;;;;;;;5120024;27;20099;-66
2022/11/18 12:39:24;;;;;;;19.60;11.30;;;;;;;;;;5104890;27;20059;-66
2022/11/18 12:44:36;;;;;;;21.30;11.73;;;;;;;;;;5113156;27;20453;-66
2022/11/18 12:47:06;;;;;;;15.95;11.23;;;;;;;;;;5117220;27;20043;-66
2022/11/18 12:49:32;;;;;;;27.33;14.10;;;;;;;;;;5120798;27;20035;-66
2022/11/18 12:52:00;;;;;;;20.85;12.73;;;;;;;;;;5118982;28;20028;-66
2022/11/18 12:54:26;;;;;;;19.60;12.02;;;;;;;;;;5110731;28;20039;-66
2022/11/18 12:56:53;;;;;;;20.42;11.65;;;;;;;;;;5104801;28;20043;-66
2022/11/18 12:59:35;;;;;;;16.42;11.93;;;;;;;;;;5111175;28;20131;-66
2022/11/18 13:02:06;;;;;;;22.63;11.40;;;;;;;;;;5114874;28;20039;-66
2022/11/18 13:04:33;;;;;;;16.42;11.52;;;;;;;;;;5100463;28;20046;-66
2022/11/18 13:06:59;;;;;;;18.98;11.27;;;;;;;;;;5091447;28;20453;-66
2022/11/18 13:09:35;;;;;;;16.85;11.18;;;;;;;;;;5105381;28;20047;-66
2022/11/18 13:12:03;;;;;;;17.10;10.07;;;;;;;;;;5105929;28;20063;-66
2022/11/18 13:17:53;;;;;;;13.38;9.52;;;;;;;;;;5103739;28;20043;-66
2022/11/18 13:20:19;;;;;;;17.05;10.43;;;;;;;;;;5102296;28;20119;-66
2022/11/18 13:25:34;;;;;;;16.17;9.48;;;;;;;;;;5093206;28;20078;-66
2022/11/18 13:28:12;;;;;;;18.73;10.05;;;;;;;;;;5103737;28;20577;-66
2022/11/18 13:30:45;;;;;;;15.63;10.57;;;;;;;;;;5104920;28;20043;-66
2022/11/18 13:33:11;;;;;;;17.98;10.57;;;;;;;;;;5104961;28;20054;-66
2022/11/18 13:35:40;;;;;;;14.85;10.57;;;;;;;;;;5101305;28;20055;-66
2022/11/18 13:38:09;;;;;;;22.42;11.68;;;;;;;;;;5103156;28;20054;-66
2022/11/18 13:41:03;;;;;;;15.35;11.20;;;;;;;;;;5102686;28;20073;-67
2022/11/18 13:43:29;;;;;;;18.48;11.40;;;;;;;;;;5103560;28;20497;-66
2022/11/18 13:45:55;;;;;;;19.25;11.48;;;;;;;;;;5102319;28;20524;-66
2022/11/18 13:48:21;;;;;;;19.73;12.23;;;;;;;;;;5103921;28;20043;-66
2022/11/18 13:50:52;;;;;;;23.25;12.25;;;;;;;;;;5106611;28;20032;-66
2022/11/18 13:53:22;;;;;;;19.15;11.25;;;;;;;;;;5109347;28;20035;-66
2022/11/18 13:56:07;;;;;;;19.88;11.02;;;;;;;;;;5106654;28;20067;-66
2022/11/18 13:58:36;;;;;;;14.95;10.38;;;;;;;;;;5108729;28;20374;-66
2022/11/18 14:01:04;;;;;;;19.00;11.05;;;;;;;;;;5108225;28;20118;-66
2022/11/18 14:03:36;;;;;;;16.90;10.93;;;;;;;;;;5103371;28;20657;-66
2022/11/18 14:06:02;;;;;;;16.02;10.68;;;;;;;;;;5108552;28;20500;-66
2022/11/18 14:08:30;;;;;;;16.52;9.70;;;;;;;;;;5122212;27;20056;-66
2022/11/18 14:10:56;;;;;;;15.27;10.00;;;;;;;;;;5127734;27;20035;-66
2022/11/18 14:13:32;;;;;;;16.27;9.75;;;;;;;;;;5126600;27;20035;-65
2022/11/18 14:16:02;;;;;;;18.55;10.77;;;;;;;;;;5125456;27;20031;-65
2022/11/18 14:18:32;;;;;;;16.73;10.95;;;;;;;;;;5126254;27;20089;-65
2022/11/18 14:20:59;;;;;;;18.75;11.32;;;;;;;;;;5121452;27;20071;-65
2022/11/18 14:23:29;;;;;;;19.63;12.18;;;;;;;;;;5124540;27;20411;-65
2022/11/18 14:25:56;;;;;;;14.45;11.00;;;;;;;;;;5126378;27;20555;-65
2022/11/18 14:28:26;;;;;;;19.17;11.52;;;;;;;;;;5123934;27;20118;-65
2022/11/18 14:31:02;;;;;;;17.63;10.63;;;;;;;;;;5128081;27;20039;-65
2022/11/18 14:33:28;;;;;;;18.48;12.20;;;;;;;;;;5121273;27;20496;-65
2022/11/18 14:35:55;;;;;;;18.88;11.52;;;;;;;;;;5119590;27;20062;-66
2022/11/18 14:38:28;;;;;;;18.48;11.43;;;;;;;;;;5120966;27;20039;-65
2022/11/18 14:40:58;;;;;;;21.33;11.90;;;;;;;;;;5120668;27;20038;-65
2022/11/18 14:43:25;;;;;;;17.15;10.48;;;;;;;;;;5122249;27;20113;-68
2022/11/18 14:45:54;;;;;;;24.77;13.02;;;;;;;;;;5126799;27;20039;-65
2022/11/18 14:48:21;;;;;;;16.30;11.60;;;;;;;;;;5120374;27;20035;-65
2022/11/18 14:50:48;;;;;;;20.15;13.07;;;;;;;;;;5123510;27;20044;-65